createdAt,value
2024-02-08T00:00:23.824Z,85.71
2024-02-08T00:03:16.322Z,85.86
2024-02-08T00:05:48.297Z,85.89
2024-02-08T00:08:20.158Z,86.06
2024-02-08T00:10:52.159Z,86.04
2024-02-08T00:13:24.787Z,86.07
2024-02-08T00:15:58.898Z,86.13
2024-02-08T00:18:31.401Z,85.97
2024-02-08T00:21:03.444Z,86.12
2024-02-08T00:23:38.437Z,86.22
2024-02-08T00:26:10.575Z,86.23
2024-02-08T00:28:44.124Z,86.27
2024-02-08T00:31:16.118Z,86.39
2024-02-08T00:33:49.710Z,86.47
2024-02-08T00:36:22.307Z,86.42
2024-02-08T00:38:54.383Z,86.40
2024-02-08T00:41:26.345Z,86.63
2024-02-08T00:43:58.829Z,86.66
2024-02-08T00:46:31.097Z,86.78
2024-02-08T00:49:03.105Z,86.86
2024-02-08T00:51:36.313Z,86.77
2024-02-08T00:54:09.848Z,86.96
2024-02-08T00:56:43.097Z,86.81
2024-02-08T00:59:17.117Z,87.00
2024-02-08T01:01:47.561Z,86.74
2024-02-08T01:04:22.821Z,86.98
2024-02-08T01:06:56.175Z,86.93
2024-02-08T01:09:28.543Z,86.91
2024-02-08T01:12:03.228Z,87.04
2024-02-08T01:14:35.383Z,86.89
2024-02-08T01:17:07.868Z,87.14
2024-02-08T01:19:40.026Z,87.28
2024-02-08T01:22:12.666Z,86.82
2024-02-08T01:24:45.444Z,87.11
2024-02-08T01:27:22.321Z,86.81
2024-02-08T01:30:01.265Z,86.61
2024-02-08T01:32:33.639Z,86.49
2024-02-08T01:35:08.522Z,86.34
2024-02-08T01:37:41.037Z,86.36
2024-02-08T01:40:18.335Z,86.17
2024-02-08T01:42:50.504Z,85.83
2024-02-08T01:45:32.529Z,86.14
2024-02-08T01:48:12.124Z,85.88
2024-02-08T01:50:54.490Z,85.94
2024-02-08T01:53:29.878Z,86.04
2024-02-08T01:56:04.196Z,85.67
2024-02-08T01:58:37.457Z,85.27
2024-02-08T02:01:09.753Z,85.18
2024-02-08T02:03:43.200Z,85.12
2024-02-08T02:06:16.166Z,85.05
2024-02-08T02:08:55.352Z,85.36
2024-02-08T02:11:32.185Z,85.08
2024-02-08T02:14:04.705Z,85.10
2024-02-08T02:16:36.849Z,84.91
2024-02-08T02:19:10.229Z,85.02
2024-02-08T02:21:42.198Z,84.94
2024-02-08T02:24:14.150Z,84.78
2024-02-08T02:26:48.003Z,84.86
2024-02-08T02:29:25.218Z,85.09
2024-02-08T02:31:57.326Z,85.06
2024-02-08T02:34:32.233Z,85.20
2024-02-08T02:37:06.379Z,85.10
2024-02-08T02:39:38.582Z,85.27
2024-02-08T02:42:10.618Z,85.07
2024-02-08T02:44:42.603Z,85.09
2024-02-08T02:47:15.093Z,85.03
2024-02-08T02:49:47.444Z,85.17
2024-02-08T02:52:19.365Z,85.05
2024-02-08T02:54:51.548Z,85.13
2024-02-08T02:57:23.778Z,84.88
2024-02-08T03:00:00.934Z,84.55
2024-02-08T03:02:33.377Z,84.66
2024-02-08T03:05:07.961Z,84.67
2024-02-08T03:07:43.935Z,84.71
2024-02-08T03:10:16.440Z,84.73
2024-02-08T03:12:48.486Z,84.20
2024-02-08T03:15:21.228Z,84.26
2024-02-08T03:17:54.261Z,84.27
2024-02-08T03:20:31.034Z,84.31
2024-02-08T03:23:03.465Z,84.09
2024-02-08T03:25:41.866Z,84.10
2024-02-08T03:28:13.909Z,84.22
2024-02-08T03:30:46.176Z,84.40
2024-02-08T03:33:18.558Z,83.91
2024-02-08T03:35:54.793Z,84.00
2024-02-08T03:38:26.847Z,84.10
2024-02-08T03:40:59.566Z,84.22
2024-02-08T03:43:34.372Z,84.17
2024-02-08T03:46:09.078Z,84.27
2024-02-08T03:48:47.228Z,84.35
2024-02-08T03:51:20.599Z,84.15
2024-02-08T03:53:54.240Z,84.36
2024-02-08T03:56:28.131Z,84.39
2024-02-08T03:59:11.597Z,84.45
2024-02-08T04:01:46.710Z,84.49
2024-02-08T04:04:23.944Z,84.50
2024-02-08T04:07:16.144Z,84.51
2024-02-08T04:09:53.120Z,84.48
2024-02-08T04:12:42.604Z,84.52
2024-02-08T04:15:33.336Z,84.51
2024-02-08T04:18:24.133Z,84.35
2024-02-08T04:21:10.040Z,84.53
2024-02-08T04:24:01.296Z,84.27
2024-02-08T04:26:50.843Z,84.15
2024-02-08T04:29:40.481Z,83.97
2024-02-08T04:32:30.584Z,84.28
2024-02-08T04:35:22.793Z,84.25
2024-02-08T04:38:13.793Z,83.93
2024-02-08T04:41:15.424Z,83.66
2024-02-08T04:44:04.963Z,83.62
2024-02-08T04:46:57.333Z,83.57
2024-02-08T04:49:48.180Z,83.41
2024-02-08T04:52:37.400Z,83.51
2024-02-08T04:55:11.804Z,83.49
2024-02-08T04:57:43.599Z,83.58
2024-02-08T05:00:17.548Z,83.85
2024-02-08T05:02:50.754Z,83.82
2024-02-08T05:05:22.598Z,83.97
2024-02-08T05:07:55.260Z,83.98
2024-02-08T05:10:29.683Z,84.04
2024-02-08T05:13:06.001Z,84.09
2024-02-08T05:15:38.499Z,83.98
2024-02-08T05:18:13.151Z,83.87
2024-02-08T05:20:49.404Z,83.77
2024-02-08T05:23:21.573Z,83.96
2024-02-08T05:25:54.019Z,83.99
2024-02-08T05:28:27.680Z,84.16
2024-02-08T05:30:59.672Z,83.93
2024-02-08T05:33:32.054Z,83.95
2024-02-08T05:36:08.525Z,84.04
2024-02-08T05:38:42.688Z,84.19
2024-02-08T05:41:17.248Z,84.15
2024-02-08T05:43:52.898Z,84.25
2024-02-08T05:46:30.153Z,84.28
2024-02-08T05:49:06.636Z,84.36
2024-02-08T05:51:39.221Z,84.36
2024-02-08T05:54:11.134Z,84.35
2024-02-08T05:56:44.753Z,84.36
2024-02-08T05:59:18.680Z,84.52
2024-02-08T06:01:54.804Z,84.39
2024-02-08T06:04:27.274Z,84.62
2024-02-08T06:07:06.604Z,84.59
2024-02-08T06:09:56.697Z,84.64
2024-02-08T06:12:45.658Z,84.75
2024-02-08T06:15:27.018Z,84.65
2024-02-08T06:18:05.468Z,84.62
2024-02-08T06:20:42.609Z,84.65
2024-02-08T06:23:25.383Z,84.63
2024-02-08T06:26:14.767Z,84.66
2024-02-08T06:28:49.191Z,84.56
2024-02-08T06:31:21.543Z,84.61
2024-02-08T06:34:29.565Z,84.58
2024-02-08T06:37:17.960Z,84.63
2024-02-08T06:39:58.324Z,84.75
2024-02-08T06:43:06.666Z,84.64
2024-02-08T06:46:10.648Z,84.56
2024-02-08T06:49:11.857Z,84.42
2024-02-08T06:52:01.046Z,84.42
2024-02-08T06:54:50.287Z,84.62
2024-02-08T06:57:39.779Z,84.42
2024-02-08T07:00:31.380Z,84.36
2024-02-08T07:03:20.653Z,84.18
2024-02-08T07:06:10.038Z,84.28
2024-02-08T07:08:59.780Z,84.44
2024-02-08T07:11:48.882Z,84.45
2024-02-08T07:14:38.458Z,84.46
2024-02-08T07:17:28.270Z,84.68
2024-02-08T07:20:18.139Z,84.54
2024-02-08T07:23:07.698Z,84.56
2024-02-08T07:25:57.557Z,84.54
2024-02-08T07:28:47.022Z,84.52
2024-02-08T07:31:36.641Z,84.56
2024-02-08T07:34:26.781Z,84.46
2024-02-08T07:37:19.549Z,84.55
2024-02-08T07:39:55.559Z,84.50
2024-02-08T07:42:33.707Z,84.61
2024-02-08T07:45:06.945Z,84.61
2024-02-08T07:47:39.408Z,84.54
2024-02-08T07:50:12.276Z,84.50
2024-02-08T07:52:48.192Z,84.66
2024-02-08T07:55:42.949Z,84.80
2024-02-08T07:58:19.459Z,84.75
2024-02-08T08:00:51.634Z,84.88
2024-02-08T08:03:25.482Z,84.68
2024-02-08T08:05:58.541Z,84.50
2024-02-08T08:08:33.111Z,84.40
2024-02-08T08:11:08.389Z,84.40
2024-02-08T08:13:58.067Z,84.02
2024-02-08T08:16:38.857Z,84.37
2024-02-08T08:19:11.549Z,84.41
2024-02-08T08:22:20.051Z,84.36
2024-02-08T08:25:14.211Z,84.55
2024-02-08T08:27:54.426Z,84.17
2024-02-08T08:30:32.546Z,84.23
2024-02-08T08:33:30.131Z,84.12
2024-02-08T08:36:06.520Z,83.88
2024-02-08T08:38:46.049Z,83.60
2024-02-08T08:41:20.228Z,83.72
2024-02-08T08:43:55.549Z,83.50
2024-02-08T08:46:27.558Z,83.45
2024-02-08T08:49:05.776Z,83.54
2024-02-08T08:51:37.936Z,83.32
2024-02-08T08:54:20.441Z,83.42
2024-02-08T08:56:53.166Z,83.20
2024-02-08T08:59:27.776Z,82.99
2024-02-08T09:02:02.128Z,82.72
2024-02-08T09:04:37.709Z,82.91
2024-02-08T09:07:13.647Z,82.87
2024-02-08T09:10:03.960Z,82.77
2024-02-08T09:12:40.588Z,82.29
2024-02-08T09:15:28.466Z,82.23
2024-02-08T09:18:10.562Z,82.56
2024-02-08T09:20:43.817Z,82.07
2024-02-08T09:23:17.761Z,81.40
2024-02-08T09:25:50.532Z,81.66
2024-02-08T09:28:27.875Z,81.35
2024-02-08T09:31:05.169Z,81.51
2024-02-08T09:33:48.639Z,81.44
2024-02-08T09:36:21.260Z,80.36
2024-02-08T09:38:53.273Z,80.08
2024-02-08T09:41:26.885Z,78.18
2024-02-08T09:44:00.987Z,79.16
2024-02-08T09:46:45.854Z,79.75
2024-02-08T09:49:19.444Z,79.74
2024-02-08T09:51:56.144Z,80.12
2024-02-08T09:54:31.171Z,79.70
2024-02-08T09:57:23.522Z,79.70
2024-02-08T10:00:07.921Z,79.35
2024-02-08T10:02:54.641Z,78.71
2024-02-08T10:05:46.634Z,78.72
2024-02-08T10:08:30.101Z,78.41
2024-02-08T10:11:25.517Z,78.36
2024-02-08T10:14:03.614Z,78.25
2024-02-08T10:16:49.345Z,78.10
2024-02-08T10:19:49.230Z,77.18
2024-02-08T10:22:28.860Z,77.58
2024-02-08T10:25:18.188Z,76.99
2024-02-08T10:27:59.065Z,75.85
2024-02-08T10:30:31.312Z,76.45
2024-02-08T10:33:06.224Z,77.08
2024-02-08T10:35:41.672Z,76.65
2024-02-08T10:38:31.904Z,75.75
2024-02-08T10:41:13.231Z,75.10
2024-02-08T10:43:53.650Z,75.40
2024-02-08T10:46:26.038Z,74.83
2024-02-08T10:48:58.850Z,74.83
2024-02-08T10:51:31.958Z,74.78
2024-02-08T10:54:16.063Z,75.12
2024-02-08T10:56:51.615Z,74.96
2024-02-08T10:59:41.196Z,75.16
2024-02-08T11:02:33.433Z,75.72
2024-02-08T11:05:23.067Z,75.17
2024-02-08T11:07:55.461Z,75.10
2024-02-08T11:10:34.087Z,74.03
2024-02-08T11:13:12.363Z,74.55
2024-02-08T11:15:51.134Z,74.01
2024-02-08T11:18:35.057Z,74.56
2024-02-08T11:21:14.570Z,74.63
2024-02-08T11:23:52.806Z,74.40
2024-02-08T11:26:27.998Z,74.41
2024-02-08T11:29:19.965Z,74.62
2024-02-08T11:31:52.401Z,74.65
2024-02-08T11:34:35.590Z,74.96
2024-02-08T11:37:20.220Z,75.17
2024-02-08T11:40:10.810Z,74.48
2024-02-08T11:42:43.732Z,74.82
2024-02-08T11:45:23.642Z,74.59
2024-02-08T11:47:57.024Z,74.97
2024-02-08T11:50:37.937Z,74.73
2024-02-08T11:53:10.988Z,74.76
2024-02-08T11:55:46.476Z,74.53
2024-02-08T11:58:18.689Z,72.92
2024-02-08T12:00:51.824Z,72.45
2024-02-08T12:03:24.333Z,72.75
2024-02-08T12:05:58.749Z,72.76
2024-02-08T12:08:37.395Z,72.31
2024-02-08T12:11:13.548Z,71.86
2024-02-08T12:13:46.361Z,72.97
2024-02-08T12:16:18.886Z,73.18
2024-02-08T12:19:01.130Z,72.92
2024-02-08T12:21:33.249Z,72.94
2024-02-08T12:24:05.785Z,71.85
2024-02-08T12:26:40.350Z,71.83
2024-02-08T12:29:19.200Z,72.11
2024-02-08T12:31:55.851Z,72.12
2024-02-08T12:34:34.544Z,72.07
2024-02-08T12:37:08.439Z,72.05
2024-02-08T12:39:44.462Z,72.18
2024-02-08T12:42:19.912Z,72.36
2024-02-08T12:44:52.211Z,72.64
2024-02-08T12:47:24.962Z,72.69
2024-02-08T12:50:08.361Z,72.62
2024-02-08T12:52:43.742Z,72.50
2024-02-08T12:55:24.770Z,71.97
2024-02-08T12:58:04.607Z,70.77
2024-02-08T13:00:39.140Z,70.98
2024-02-08T13:03:12.014Z,71.59
2024-02-08T13:05:46.789Z,72.31
2024-02-08T13:08:25.507Z,72.60
2024-02-08T13:10:58.460Z,72.85
2024-02-08T13:13:30.918Z,73.30
2024-02-08T13:16:11.332Z,73.66
2024-02-08T13:18:49.707Z,73.89
2024-02-08T13:21:26.398Z,74.10
2024-02-08T13:23:58.806Z,74.28
2024-02-08T13:26:36.170Z,74.33
2024-02-08T13:29:13.007Z,74.14
2024-02-08T13:31:46.542Z,74.21
2024-02-08T13:34:28.364Z,74.08
2024-02-08T13:37:01.399Z,74.17
2024-02-08T13:39:34.556Z,74.31
2024-02-08T13:42:06.514Z,74.12
2024-02-08T13:44:38.900Z,74.23
2024-02-08T13:47:14.576Z,74.45
2024-02-08T13:49:50.860Z,74.12
2024-02-08T13:52:29.712Z,74.12
2024-02-08T13:55:03.161Z,74.48
2024-02-08T13:57:35.689Z,74.40
2024-02-08T14:00:11.247Z,74.39
2024-02-08T14:02:43.515Z,74.19
2024-02-08T14:05:19.464Z,74.32
2024-02-08T14:07:55.973Z,74.48
2024-02-08T14:10:33.344Z,74.51
2024-02-08T14:13:10.944Z,74.75
2024-02-08T14:15:48.780Z,74.58
2024-02-08T14:18:33.397Z,73.96
2024-02-08T14:21:09.730Z,74.06
2024-02-08T14:23:44.849Z,74.29
2024-02-08T14:26:34.933Z,74.37
2024-02-08T14:29:07.289Z,74.52
2024-02-08T14:31:41.452Z,74.54
2024-02-08T14:34:15.843Z,74.44
2024-02-08T14:36:51.153Z,74.55
2024-02-08T14:39:34.348Z,74.58
2024-02-08T14:42:13.680Z,74.51
2024-02-08T14:44:46.620Z,74.84
2024-02-08T14:47:23.562Z,74.75
2024-02-08T14:50:02.411Z,74.88
2024-02-08T14:52:45.496Z,75.02
2024-02-08T14:55:27.773Z,75.11
2024-02-08T14:58:02.146Z,75.28
2024-02-08T15:01:00.963Z,75.22
2024-02-08T15:03:38.314Z,75.31
2024-02-08T15:06:27.596Z,75.43
2024-02-08T15:09:28.513Z,75.42
2024-02-08T15:12:02.190Z,75.58
2024-02-08T15:14:38.608Z,75.59
2024-02-08T15:17:12.364Z,75.58
2024-02-08T15:19:48.554Z,75.49
2024-02-08T15:22:41.895Z,75.60
2024-02-08T15:25:18.008Z,75.80
2024-02-08T15:27:55.203Z,75.78
2024-02-08T15:30:38.293Z,75.73
2024-02-08T15:33:30.569Z,75.73
2024-02-08T15:36:12.130Z,75.79
2024-02-08T15:39:01.865Z,75.69
2024-02-08T15:41:52.155Z,75.60
2024-02-08T15:44:36.657Z,75.63
2024-02-08T15:47:14.073Z,75.33
2024-02-08T15:49:46.766Z,75.39
2024-02-08T15:52:23.881Z,75.47
2024-02-08T15:54:58.913Z,75.42
2024-02-08T15:57:34.591Z,75.51
2024-02-08T16:00:29.253Z,75.48
2024-02-08T16:03:03.794Z,75.56
2024-02-08T16:05:46.349Z,75.74
2024-02-08T16:08:18.478Z,75.71
2024-02-08T16:10:51.030Z,75.62
2024-02-08T16:13:35.886Z,75.56
2024-02-08T16:16:09.599Z,75.68
2024-02-08T16:18:41.677Z,75.50
2024-02-08T16:21:20.135Z,75.34
2024-02-08T16:23:55.094Z,75.52
2024-02-08T16:26:32.219Z,75.42
2024-02-08T16:29:09.808Z,75.64
2024-02-08T16:31:44.631Z,75.65
2024-02-08T16:34:27.404Z,75.61
2024-02-08T16:37:05.322Z,75.58
2024-02-08T16:39:56.207Z,75.74
2024-02-08T16:42:36.430Z,75.76
2024-02-08T16:45:19.247Z,75.72
2024-02-08T16:47:57.742Z,75.60
2024-02-08T16:50:46.661Z,75.65
2024-02-08T16:53:23.650Z,75.75
2024-02-08T16:56:00.141Z,75.66
2024-02-08T16:58:39.521Z,75.64
2024-02-08T17:01:23.482Z,75.75
2024-02-08T17:04:18.613Z,75.82
2024-02-08T17:07:00.257Z,75.85
2024-02-08T17:09:45.000Z,75.78
2024-02-08T17:12:28.814Z,75.95
2024-02-08T17:15:21.061Z,75.78
2024-02-08T17:17:55.706Z,75.88
2024-02-08T17:20:39.307Z,75.92
2024-02-08T17:23:18.990Z,75.94
2024-02-08T17:26:02.018Z,76.05
2024-02-08T17:28:37.866Z,76.10
2024-02-08T17:31:23.539Z,76.13
2024-02-08T17:33:58.276Z,76.02
2024-02-08T17:36:34.595Z,76.26
2024-02-08T17:39:09.071Z,76.35
2024-02-08T17:41:44.545Z,76.44
2024-02-08T17:44:17.889Z,76.50
2024-02-08T17:46:54.328Z,76.44
2024-02-08T17:49:26.547Z,76.60
2024-02-08T17:52:01.081Z,76.55
2024-02-08T17:54:46.716Z,76.68
2024-02-08T17:57:25.486Z,76.75
2024-02-08T18:00:00.841Z,76.76
2024-02-08T18:02:37.814Z,76.98
2024-02-08T18:05:15.955Z,77.05
2024-02-08T18:07:48.398Z,77.04
2024-02-08T18:10:22.126Z,77.28
2024-02-08T18:12:57.453Z,77.31
2024-02-08T18:15:36.329Z,77.23
2024-02-08T18:18:08.820Z,77.40
2024-02-08T18:20:42.875Z,77.53
2024-02-08T18:23:20.353Z,77.59
2024-02-08T18:25:53.330Z,77.64
2024-02-08T18:28:27.171Z,77.82
2024-02-08T18:30:59.207Z,78.02
2024-02-08T18:33:34.064Z,78.13
2024-02-08T18:36:09.382Z,77.91
2024-02-08T18:38:43.720Z,78.19
2024-02-08T18:41:21.606Z,78.16
2024-02-08T18:43:54.180Z,78.25
2024-02-08T18:46:29.348Z,78.31
2024-02-08T18:49:03.140Z,78.41
2024-02-08T18:51:35.385Z,78.41
2024-02-08T18:54:15.495Z,78.62
2024-02-08T18:56:47.868Z,78.66
2024-02-08T18:59:20.425Z,78.74
2024-02-08T19:01:57.899Z,78.79
2024-02-08T19:04:37.322Z,78.82
2024-02-08T19:07:12.980Z,78.88
2024-02-08T19:09:45.305Z,79.04
2024-02-08T19:12:19.463Z,79.28
2024-02-08T19:14:53.005Z,79.20
2024-02-08T19:17:26.837Z,79.29
2024-02-08T19:19:58.906Z,79.28
2024-02-08T19:22:33.369Z,79.49
2024-02-08T19:25:05.907Z,79.50
2024-02-08T19:27:39.286Z,79.57
2024-02-08T19:30:14.475Z,79.51
2024-02-08T19:32:47.333Z,79.49
2024-02-08T19:35:23.955Z,79.51
2024-02-08T19:37:56.319Z,79.58
2024-02-08T19:40:31.155Z,79.66
2024-02-08T19:43:06.550Z,79.84
2024-02-08T19:45:43.420Z,79.92
2024-02-08T19:48:20.102Z,79.97
2024-02-08T19:50:52.475Z,80.06
2024-02-08T19:53:29.781Z,80.25
2024-02-08T19:56:09.155Z,80.34
2024-02-08T19:58:44.555Z,80.34
2024-02-08T20:01:18.024Z,80.42
2024-02-08T20:03:53.688Z,80.35
2024-02-08T20:06:28.399Z,80.47
2024-02-08T20:09:01.234Z,80.65
2024-02-08T20:11:34.002Z,80.69
2024-02-08T20:14:08.345Z,80.53
2024-02-08T20:16:43.140Z,80.88
2024-02-08T20:19:16.282Z,80.87
2024-02-08T20:21:51.354Z,80.74
2024-02-08T20:24:24.734Z,80.68
2024-02-08T20:26:57.026Z,80.55
2024-02-08T20:29:29.734Z,80.70
2024-02-08T20:32:02.908Z,80.58
2024-02-08T20:34:40.328Z,80.76
2024-02-08T20:37:15.426Z,80.89
2024-02-08T20:39:48.887Z,80.88
2024-02-08T20:42:25.279Z,81.05
2024-02-08T20:44:59.714Z,81.09
2024-02-08T20:47:32.028Z,81.30
2024-02-08T20:50:05.448Z,81.38
2024-02-08T20:52:39.118Z,81.40
2024-02-08T20:55:18.529Z,81.47
2024-02-08T20:57:52.292Z,81.27
2024-02-08T21:00:31.540Z,81.32
2024-02-08T21:03:06.616Z,81.38
2024-02-08T21:05:41.040Z,81.52
2024-02-08T21:08:13.912Z,81.36
2024-02-08T21:10:48.264Z,81.53
2024-02-08T21:13:21.918Z,81.45
2024-02-08T21:15:55.130Z,81.50
2024-02-08T21:18:29.872Z,81.46
2024-02-08T21:21:03.307Z,81.47
2024-02-08T21:23:36.502Z,81.56
2024-02-08T21:26:16.408Z,81.46
2024-02-08T21:28:52.634Z,81.33
2024-02-08T21:31:24.653Z,81.37
2024-02-08T21:33:58.336Z,81.21
2024-02-08T21:36:30.798Z,81.21
2024-02-08T21:39:02.728Z,81.18
2024-02-08T21:41:34.614Z,81.10
2024-02-08T21:44:08.146Z,81.12
2024-02-08T21:46:42.947Z,80.95
2024-02-08T21:51:51.029Z,80.90
2024-02-08T21:54:23.038Z,80.93
2024-02-08T21:56:55.110Z,81.14
2024-02-08T21:59:29.798Z,80.96
2024-02-08T22:02:02.361Z,81.10
2024-02-08T22:04:34.642Z,80.93
2024-02-08T22:07:08.006Z,81.12
2024-02-08T22:09:40.299Z,81.10
2024-02-08T22:12:17.654Z,81.17
2024-02-08T22:14:50.534Z,81.18
2024-02-08T22:17:22.913Z,81.09
2024-02-08T22:19:55.339Z,81.37
2024-02-08T22:22:27.855Z,81.21
2024-02-08T22:25:01.549Z,81.32
2024-02-08T22:27:35.063Z,81.92
2024-02-08T22:30:11.773Z,81.68
2024-02-08T22:32:45.618Z,81.70
2024-02-08T22:35:18.164Z,81.73
2024-02-08T22:37:51.017Z,81.89
2024-02-08T22:40:24.537Z,82.20
2024-02-08T22:42:57.341Z,82.19
2024-02-08T22:45:31.194Z,82.27
2024-02-08T22:48:04.909Z,82.73
2024-02-08T22:50:37.649Z,82.63
2024-02-08T22:53:11.180Z,82.37
2024-02-08T22:55:43.700Z,82.12
2024-02-08T22:58:15.809Z,82.18
2024-02-08T23:00:51.256Z,82.32
2024-02-08T23:03:26.114Z,82.23
2024-02-08T23:06:00.131Z,82.25
2024-02-08T23:08:30.798Z,82.40
2024-02-08T23:11:02.932Z,82.49
2024-02-08T23:13:35.517Z,82.57
2024-02-08T23:16:09.785Z,82.73
2024-02-08T23:18:40.592Z,82.92
2024-02-08T23:21:12.680Z,82.93
2024-02-08T23:23:45.070Z,83.19
2024-02-08T23:26:17.574Z,83.23
2024-02-08T23:28:50.029Z,83.49
2024-02-08T23:31:22.596Z,83.79
2024-02-08T23:33:55.063Z,83.89
2024-02-08T23:36:27.201Z,84.27
2024-02-08T23:39:00.975Z,84.62
2024-02-08T23:41:33.042Z,84.77
2024-02-08T23:44:05.315Z,84.74
2024-02-08T23:46:40.440Z,85.49
2024-02-08T23:49:12.843Z,86.67
2024-02-08T23:51:44.947Z,86.76
2024-02-08T23:54:16.952Z,86.92
2024-02-08T23:56:49.049Z,87.86
2024-02-08T23:59:21.013Z,88.21
